Time;durP1;ratioP1;P1;durP2;ratioP2;P2;SDS_P1;SDS_P2;PMS_P1;PMS_P2;Temp;Humidity;BMP_temperature;BMP_pressure;BME280_temperature;BME280_humidity;BME280_pressure;Samples;Min_cycle;Max_cycle;Signal;HPM_P1;HPM_P2
2022/07/27 00:01:27;;;;;;;5.80;1.48;;;18.00;1.00;;;;;;4955722;28;20115;-87
2022/07/27 00:04:17;;;;;;;5.22;1.42;;;17.90;1.00;;;;;;4945701;29;20062;-87
2022/07/27 00:07:05;;;;;;;4.75;1.65;;;17.90;1.00;;;;;;4946936;29;20043;-86
2022/07/27 00:09:55;;;;;;;4.32;1.60;;;17.90;1.00;;;;;;4936754;28;20066;-87
2022/07/27 00:12:44;;;;;;;5.35;1.60;;;17.90;1.00;;;;;;4959179;28;20066;-87
2022/07/27 00:15:33;;;;;;;3.83;1.30;;;17.90;1.00;;;;;;4939533;28;20087;-85
2022/07/27 00:18:25;;;;;;;5.47;1.50;;;17.90;1.00;;;;;;4943339;28;20055;-89
2022/07/27 00:21:13;;;;;;;4.50;1.73;;;17.90;1.00;;;;;;4951111;28;20450;-87
2022/07/27 00:24:03;;;;;;;3.13;1.70;;;17.90;1.00;;;;;;4932178;29;20040;-88
2022/07/27 00:26:52;;;;;;;6.00;1.90;;;17.80;1.00;;;;;;4948291;28;20047;-85
2022/07/27 00:29:40;;;;;;;6.25;1.83;;;17.80;1.00;;;;;;4956275;29;20130;-87
2022/07/27 00:32:27;;;;;;;4.82;2.20;;;17.80;1.00;;;;;;4956573;29;20114;-84
2022/07/27 00:35:17;;;;;;;5.82;2.47;;;17.90;1.00;;;;;;4943763;29;20065;-86
2022/07/27 00:38:09;;;;;;;6.13;1.58;;;17.80;1.00;;;;;;4959044;28;20145;-87
2022/07/27 00:40:56;;;;;;;3.80;2.10;;;17.80;1.00;;;;;;4962151;28;20043;-86
2022/07/27 00:43:51;;;;;;;5.95;2.13;;;17.80;1.00;;;;;;4967570;28;20055;-86
2022/07/27 00:46:38;;;;;;;2.92;2.13;;;17.80;1.00;;;;;;4949432;29;20051;-86
2022/07/27 00:49:28;;;;;;;3.60;1.98;;;17.80;1.00;;;;;;4946052;28;20047;-86
2022/07/27 00:52:16;;;;;;;4.47;2.28;;;17.80;1.00;;;;;;4957096;29;20047;-86
2022/07/27 00:55:07;;;;;;;5.72;2.10;;;17.80;1.00;;;;;;4943247;29;20107;-86
2022/07/27 00:57:54;;;;;;;4.70;2.30;;;17.80;1.00;;;;;;4939356;29;20063;-87
2022/07/27 01:00:45;;;;;;;4.25;2.10;;;17.80;1.00;;;;;;4970146;28;20039;-87
2022/07/27 01:03:32;;;;;;;8.55;2.22;;;17.80;1.00;;;;;;4962001;29;20083;-88
2022/07/27 01:06:21;;;;;;;4.07;2.00;;;17.70;1.00;;;;;;4949683;28;20183;-88
2022/07/27 01:12:20;;;;;;;4.53;2.03;;;17.60;1.00;;;;;;4970841;28;20048;-85
2022/07/27 01:15:11;;;;;;;3.95;2.10;;;17.60;1.00;;;;;;4946990;28;20066;-88
2022/07/27 01:18:00;;;;;;;3.75;2.10;;;17.60;1.00;;;;;;4966356;28;20441;-88
2022/07/27 01:20:47;;;;;;;6.00;2.33;;;17.40;1.00;;;;;;4957331;28;20058;-87
2022/07/27 01:23:37;;;;;;;7.57;3.17;;;17.30;1.00;;;;;;4961633;28;20046;-87
2022/07/27 01:26:27;;;;;;;6.05;2.72;;;17.20;1.00;;;;;;4961412;28;20098;-88
2022/07/27 01:29:14;;;;;;;3.40;2.05;;;17.10;1.00;;;;;;4937227;28;20505;-88
2022/07/27 01:32:02;;;;;;;3.65;2.20;;;16.90;1.00;;;;;;4943112;28;20465;-87
2022/07/27 01:34:49;;;;;;;6.15;2.33;;;17.00;1.00;;;;;;4954813;29;20055;-87
2022/07/27 01:37:41;;;;;;;6.13;2.40;;;16.90;1.00;;;;;;4939719;28;20547;-87
2022/07/27 01:40:38;;;;;;;4.43;2.25;;;16.90;1.00;;;;;;4959551;28;20062;-87
2022/07/27 01:43:33;;;;;;;5.38;2.55;;;16.70;1.00;;;;;;4957583;28;20072;-88
2022/07/27 01:46:24;;;;;;;2.95;2.30;;;16.60;1.00;;;;;;4943244;28;20445;-87
2022/07/27 01:49:13;;;;;;;4.38;2.72;;;16.50;1.00;;;;;;4942524;29;20043;-88
2022/07/27 01:52:04;;;;;;;7.78;2.55;;;16.40;1.00;;;;;;4954757;28;20039;-88
2022/07/27 01:54:53;;;;;;;7.55;2.70;;;16.50;1.00;;;;;;4958055;28;20604;-88
2022/07/27 01:57:40;;;;;;;5.20;2.45;;;16.40;1.00;;;;;;4966075;28;20053;-88
2022/07/27 02:00:28;;;;;;;3.67;2.55;;;16.40;1.00;;;;;;4961028;28;20312;-87
2022/07/27 02:03:15;;;;;;;3.25;2.25;;;16.40;1.00;;;;;;4943758;28;20050;-87
2022/07/27 02:06:06;;;;;;;3.22;2.70;;;16.30;1.00;;;;;;4954890;28;20446;-88
2022/07/27 02:08:55;;;;;;;4.47;2.67;;;16.30;1.00;;;;;;4950996;28;20047;-87
2022/07/27 02:14:50;;;;;;;5.40;2.22;;;16.20;1.00;;;;;;4953780;28;20047;-87
2022/07/27 02:17:41;;;;;;;4.10;2.17;;;16.20;1.00;;;;;;4956820;28;20040;-87
2022/07/27 02:20:29;;;;;;;4.18;2.47;;;16.10;1.00;;;;;;4964154;28;20137;-88
2022/07/27 02:23:17;;;;;;;4.72;2.50;;;16.10;1.00;;;;;;4949992;28;20093;-88
2022/07/27 02:26:07;;;;;;;6.05;2.97;;;16.10;1.00;;;;;;4958748;28;20120;-89
2022/07/27 02:28:56;;;;;;;4.07;2.60;;;16.10;1.00;;;;;;4947429;29;20362;-88
2022/07/27 02:31:48;;;;;;;8.05;2.97;;;16.10;1.00;;;;;;4943670;29;20048;-88
2022/07/27 02:34:41;;;;;;;7.72;3.03;;;16.20;1.00;;;;;;4957383;28;20149;-87
2022/07/27 02:37:28;;;;;;;3.35;2.47;;;16.30;1.00;;;;;;4952959;28;20102;-85
2022/07/27 02:40:19;;;;;;;4.43;2.70;;;16.40;1.00;;;;;;4950742;28;20087;-87
2022/07/27 02:43:06;;;;;;;8.75;2.80;;;16.50;1.00;;;;;;4940268;28;20082;-85
2022/07/27 02:45:58;;;;;;;6.43;2.53;;;16.50;1.00;;;;;;4947894;29;20380;-88
2022/07/27 02:48:47;;;;;;;6.50;2.38;;;16.50;1.00;;;;;;4955471;28;20055;-89
2022/07/27 02:51:35;;;;;;;5.68;2.75;;;16.60;1.00;;;;;;4947068;28;20368;-87
2022/07/27 02:54:30;;;;;;;8.52;2.78;;;16.60;1.00;;;;;;4941843;28;20067;-86
2022/07/27 02:57:18;;;;;;;8.00;2.88;;;16.60;1.00;;;;;;4959071;28;20047;-87
2022/07/27 03:00:10;;;;;;;4.72;2.95;;;16.60;1.00;;;;;;4955266;28;20377;-88
2022/07/27 03:02:57;;;;;;;6.53;2.83;;;16.50;1.00;;;;;;4954113;28;20457;-87
2022/07/27 03:05:47;;;;;;;6.60;2.67;;;16.50;1.00;;;;;;4958017;28;20054;-87
2022/07/27 03:08:35;;;;;;;7.25;3.42;;;16.50;1.00;;;;;;4941464;28;20040;-87
2022/07/27 03:11:24;;;;;;;5.15;2.88;;;16.40;1.00;;;;;;4934168;29;20445;-88
2022/07/27 03:14:11;;;;;;;7.53;3.33;;;16.40;1.00;;;;;;4946789;28;20050;-87
2022/07/27 03:17:03;;;;;;;5.22;3.03;;;16.40;1.00;;;;;;4963589;28;20043;-87
2022/07/27 03:19:53;;;;;;;6.30;3.20;;;16.40;1.00;;;;;;4935887;28;20334;-87
2022/07/27 03:22:40;;;;;;;6.68;3.28;;;16.30;1.00;;;;;;4956690;28;20083;-87
2022/07/27 03:25:28;;;;;;;6.05;3.15;;;16.20;1.00;;;;;;4929469;29;20130;-88
2022/07/27 03:28:17;;;;;;;6.05;3.20;;;16.20;1.00;;;;;;4954870;28;20055;-87
2022/07/27 03:31:06;;;;;;;8.05;3.63;;;16.00;1.00;;;;;;4956546;29;20134;-87
2022/07/27 03:33:57;;;;;;;5.50;3.58;;;15.80;1.00;;;;;;4970587;28;20050;-87
2022/07/27 03:36:45;;;;;;;6.00;3.83;;;15.70;1.00;;;;;;4942893;29;20671;-87
2022/07/27 03:39:34;;;;;;;5.90;3.42;;;15.60;1.00;;;;;;4957690;28;20051;-87
2022/07/27 03:42:23;;;;;;;8.45;5.60;;;15.50;1.00;;;;;;4956021;28;20045;-86
2022/07/27 03:45:11;;;;;;;6.05;3.90;;;15.50;1.00;;;;;;4945655;28;20091;-86
2022/07/27 03:47:59;;;;;;;7.00;4.00;;;15.40;1.00;;;;;;4941396;29;20066;-86
2022/07/27 03:50:46;;;;;;;8.00;4.22;;;15.40;1.00;;;;;;4959670;28;20119;-87
2022/07/27 03:53:34;;;;;;;8.75;4.50;;;15.40;1.00;;;;;;4950837;28;20062;-86
2022/07/27 03:56:26;;;;;;;9.45;4.65;;;15.30;1.00;;;;;;4945553;29;20055;-86
2022/07/27 03:59:13;;;;;;;8.27;4.63;;;15.30;7.70;;;;;;4951779;28;20130;-87
2022/07/27 04:06:12;;;;;;;9.18;4.93;;;15.20;24.70;;;;;;4958741;28;20409;-86
2022/07/27 04:09:00;;;;;;;6.47;5.07;;;15.10;36.80;;;;;;4965654;28;20061;-87
2022/07/27 04:11:55;;;;;;;12.05;5.85;;;15.10;43.40;;;;;;4965921;28;20171;-88
2022/07/27 04:14:44;;;;;;;9.43;5.03;;;15.10;56.60;;;;;;4961099;28;20156;-87
2022/07/27 04:17:34;;;;;;;7.82;4.85;;;15.10;55.10;;;;;;4957168;28;20091;-86
2022/07/27 04:20:41;;;;;;;8.35;5.28;;;15.30;50.00;;;;;;4946572;29;20054;-87
2022/07/27 04:23:28;;;;;;;8.25;5.10;;;15.40;44.50;;;;;;4939822;29;20047;-87
2022/07/27 04:26:22;;;;;;;11.70;5.25;;;15.50;35.70;;;;;;4960100;28;20047;-87
2022/07/27 04:29:09;;;;;;;8.18;4.95;;;15.60;26.60;;;;;;4944592;29;20062;-86
2022/07/27 04:31:59;;;;;;;6.28;4.85;;;15.60;36.10;;;;;;4956041;28;20511;-87
2022/07/27 04:34:46;;;;;;;6.25;5.03;;;15.70;40.60;;;;;;4943233;28;20059;-83
2022/07/27 04:37:36;;;;;;;7.65;4.43;;;15.80;32.80;;;;;;4952641;28;20058;-85
2022/07/27 04:40:23;;;;;;;5.60;4.60;;;15.80;39.50;;;;;;4956543;29;20448;-85
2022/07/27 04:43:13;;;;;;;9.98;5.68;;;15.80;37.50;;;;;;4957015;28;20609;-85
2022/07/27 04:46:03;;;;;;;11.27;5.05;;;15.80;34.40;;;;;;4948724;28;20721;-86
2022/07/27 04:48:52;;;;;;;5.38;4.57;;;15.90;30.30;;;;;;4954823;28;20046;-85
2022/07/27 04:51:42;;;;;;;12.15;5.13;;;15.90;22.00;;;;;;4948626;28;20146;-86
2022/07/27 04:54:32;;;;;;;10.57;4.70;;;16.00;28.00;;;;;;4937191;28;20132;-85
2022/07/27 04:57:22;;;;;;;6.03;4.65;;;16.10;11.90;;;;;;4950045;28;20051;-86
2022/07/27 05:00:12;;;;;;;8.15;4.82;;;16.20;6.70;;;;;;4975841;28;20058;-85
2022/07/27 05:03:01;;;;;;;8.68;4.97;;;16.30;6.60;;;;;;4943228;29;20094;-86
2022/07/27 05:05:49;;;;;;;6.72;4.45;;;16.40;23.00;;;;;;4960329;28;20058;-83
2022/07/27 05:08:36;;;;;;;10.05;5.78;;;16.40;13.70;;;;;;4944587;28;20493;-82
2022/07/27 05:11:26;;;;;;;6.72;4.45;;;16.50;4.20;;;;;;4939823;28;20139;-83
2022/07/27 05:14:16;;;;;;;7.30;4.30;;;16.60;5.70;;;;;;4942859;29;20051;-83
2022/07/27 05:17:11;;;;;;;10.32;4.72;;;16.60;12.00;;;;;;4951983;29;20380;-82
2022/07/27 05:19:59;;;;;;;5.82;4.38;;;16.60;9.90;;;;;;4935257;29;20050;-82
2022/07/27 05:22:46;;;;;;;7.95;4.43;;;16.70;10.50;;;;;;4956579;28;20055;-82
2022/07/27 05:25:33;;;;;;;6.03;4.70;;;16.70;8.80;;;;;;4950315;28;20043;-82
2022/07/27 05:28:20;;;;;;;4.97;3.70;;;16.80;17.10;;;;;;4950916;28;20054;-82
2022/07/27 05:31:10;;;;;;;4.70;3.90;;;16.90;1.00;;;;;;4957184;28;20445;-82
2022/07/27 05:33:57;;;;;;;7.55;4.15;;;17.00;1.00;;;;;;4941765;28;20107;-81
2022/07/27 05:36:44;;;;;;;5.95;4.05;;;17.10;1.00;;;;;;4956026;28;20043;-82
2022/07/27 05:39:32;;;;;;;8.65;3.78;;;17.10;1.00;;;;;;4949618;28;20051;-82
2022/07/27 05:42:19;;;;;;;6.00;4.22;;;17.20;1.00;;;;;;4953049;29;20039;-81
2022/07/27 05:45:10;;;;;;;7.70;4.10;;;17.30;1.00;;;;;;4944982;28;20047;-82
2022/07/27 05:48:02;;;;;;;9.05;4.05;;;17.40;1.00;;;;;;4936179;29;20056;-81
2022/07/27 05:50:49;;;;;;;12.27;4.97;;;17.50;1.00;;;;;;4955856;29;20063;-84
2022/07/27 05:53:36;;;;;;;10.07;4.78;;;17.60;1.00;;;;;;4958918;28;20368;-84
2022/07/27 05:56:24;;;;;;;6.10;4.15;;;17.60;1.00;;;;;;4961748;28;20044;-81
2022/07/27 05:59:12;;;;;;;9.15;4.03;;;17.70;1.00;;;;;;4954102;28;20043;-84
2022/07/27 06:02:00;;;;;;;7.03;4.20;;;17.70;1.00;;;;;;4944435;28;20047;-81
2022/07/27 06:04:47;;;;;;;8.65;4.43;;;17.70;1.00;;;;;;4963351;28;20058;-82
2022/07/27 06:10:40;;;;;;;7.07;4.10;;;17.80;1.00;;;;;;4953384;29;20062;-83
2022/07/27 06:13:28;;;;;;;8.77;3.95;;;17.80;1.00;;;;;;4960187;28;20051;-83
2022/07/27 06:16:20;;;;;;;7.07;4.25;;;17.90;1.00;;;;;;4939030;28;20062;-83
2022/07/27 06:19:10;;;;;;;4.88;3.53;;;18.00;1.00;;;;;;4944627;28;20047;-82
2022/07/27 06:21:58;;;;;;;6.88;4.38;;;18.20;1.00;;;;;;4934567;29;20469;-84
2022/07/27 06:24:50;;;;;;;6.50;4.07;;;18.40;1.00;;;;;;4955524;28;20054;-84
2022/07/27 06:27:38;;;;;;;7.72;4.40;;;18.50;1.00;;;;;;4950362;28;20095;-85
2022/07/27 06:30:26;;;;;;;6.30;3.65;;;18.60;1.00;;;;;;4956241;28;20433;-83
2022/07/27 06:33:16;;;;;;;7.32;4.15;;;18.80;1.00;;;;;;4952078;28;20043;-82
2022/07/27 06:36:04;;;;;;;5.32;3.60;;;18.80;1.00;;;;;;4954333;29;20047;-83
2022/07/27 06:38:51;;;;;;;11.35;4.28;;;18.90;1.00;;;;;;4956690;28;20043;-83
2022/07/27 06:41:41;;;;;;;6.57;3.58;;;19.00;1.00;;;;;;4953359;29;20044;-82
2022/07/27 06:44:28;;;;;;;11.70;3.97;;;19.10;1.00;;;;;;4947635;29;20146;-83
2022/07/27 06:47:15;;;;;;;5.57;3.28;;;19.20;1.00;;;;;;4954155;29;20039;-81
2022/07/27 06:50:04;;;;;;;5.78;3.42;;;19.30;1.00;;;;;;4954380;28;20055;-81
2022/07/27 06:52:54;;;;;;;5.90;3.25;;;19.60;1.00;;;;;;4957224;28;20388;-81
2022/07/27 06:55:43;;;;;;;4.13;3.40;;;19.80;1.00;;;;;;4954838;28;20421;-81
2022/07/27 06:58:34;;;;;;;10.52;3.92;;;19.80;1.00;;;;;;4938931;29;20043;-80
2022/07/27 07:01:22;;;;;;;3.72;3.25;;;19.80;1.00;;;;;;4950518;28;20428;-82
2022/07/27 07:04:09;;;;;;;13.70;3.85;;;19.80;1.00;;;;;;4955464;29;20103;-83
2022/07/27 07:07:01;;;;;;;6.05;3.22;;;20.10;1.00;;;;;;4956246;28;20043;-81
2022/07/27 07:09:57;;;;;;;4.90;3.13;;;20.40;1.00;;;;;;4953116;28;20062;-83
2022/07/27 07:12:45;;;;;;;6.63;3.55;;;20.60;1.00;;;;;;4951595;29;20194;-85
2022/07/27 07:15:33;;;;;;;7.18;3.00;;;20.80;1.00;;;;;;4939184;29;20154;-82
2022/07/27 07:18:20;;;;;;;5.70;2.70;;;20.90;1.00;;;;;;4946207;28;20054;-83
2022/07/27 07:21:08;;;;;;;6.65;3.03;;;21.30;1.00;;;;;;4951523;29;20062;-82
2022/07/27 07:23:55;;;;;;;8.07;3.20;;;21.50;1.00;;;;;;4947958;29;20054;-83
2022/07/27 07:26:47;;;;;;;4.30;2.92;;;21.50;1.00;;;;;;4957415;28;20119;-83
2022/07/27 07:29:35;;;;;;;5.38;3.15;;;21.40;1.00;;;;;;4951765;28;20059;-84
2022/07/27 07:32:25;;;;;;;6.18;2.97;;;21.50;1.00;;;;;;4952136;28;20051;-83
2022/07/27 07:35:19;;;;;;;5.90;2.80;;;21.70;1.00;;;;;;4949541;28;20055;-84
2022/07/27 07:38:07;;;;;;;8.25;3.30;;;21.60;1.00;;;;;;4941639;29;20035;-84
2022/07/27 07:40:54;;;;;;;7.50;3.13;;;21.40;1.00;;;;;;4951316;28;20048;-83
2022/07/27 07:43:41;;;;;;;7.35;3.20;;;21.20;1.00;;;;;;4957301;28;20445;-84
2022/07/27 07:46:28;;;;;;;4.43;3.20;;;21.50;1.00;;;;;;4950132;28;20102;-84
2022/07/27 07:49:16;;;;;;;4.65;3.30;;;21.70;1.00;;;;;;4951557;28;20055;-86
2022/07/27 07:52:07;;;;;;;4.57;3.05;;;21.80;1.00;;;;;;4946733;28;20155;-81
2022/07/27 07:54:54;;;;;;;9.00;2.95;;;22.10;1.00;;;;;;4950016;29;20055;-82
2022/07/27 07:57:41;;;;;;;5.13;3.10;;;22.40;1.00;;;;;;4952659;28;20142;-82
2022/07/27 08:00:31;;;;;;;7.40;3.05;;;22.30;1.00;;;;;;4951881;29;20051;-82
2022/07/27 08:03:18;;;;;;;5.18;2.80;;;22.60;1.00;;;;;;4951605;29;20106;-80
2022/07/27 08:06:07;;;;;;;9.63;3.00;;;22.60;1.00;;;;;;4955932;28;20051;-80
2022/07/27 08:08:54;;;;;;;4.25;2.67;;;22.60;1.00;;;;;;4955377;28;20051;-80
2022/07/27 08:11:42;;;;;;;6.60;2.80;;;22.60;1.00;;;;;;4959444;28;20047;-82
2022/07/27 08:14:29;;;;;;;8.73;2.85;;;22.40;1.00;;;;;;4956298;29;20066;-82
2022/07/27 08:17:21;;;;;;;6.68;2.70;;;22.70;1.00;;;;;;4955209;29;20058;-84
2022/07/27 08:20:10;;;;;;;6.55;2.90;;;22.90;1.00;;;;;;4944027;28;20054;-82
2022/07/27 08:22:57;;;;;;;5.15;2.70;;;23.20;1.00;;;;;;4959917;28;20133;-83
2022/07/27 08:25:45;;;;;;;3.75;2.85;;;23.30;1.00;;;;;;4961971;28;20047;-83
2022/07/27 08:28:33;;;;;;;4.75;2.85;;;23.30;1.00;;;;;;4949222;29;20103;-82
2022/07/27 08:31:23;;;;;;;4.38;3.15;;;23.00;1.00;;;;;;4948154;29;20062;-82
2022/07/27 08:34:30;;;;;;;3.97;2.95;;;23.00;1.00;;;;;;4945941;29;20150;-83
2022/07/27 08:37:17;;;;;;;5.78;2.80;;;23.50;1.00;;;;;;4948808;28;20043;-83
2022/07/27 08:40:06;;;;;;;5.22;3.95;;;23.70;1.00;;;;;;4960662;28;20393;-83
2022/07/27 08:43:18;;;;;;;7.25;3.50;;;23.80;1.00;;;;;;4959964;28;20055;-82
2022/07/27 08:46:11;;;;;;;6.28;2.72;;;23.80;1.00;;;;;;4956262;29;20039;-83
2022/07/27 08:49:01;;;;;;;4.97;2.97;;;24.30;1.00;;;;;;4958775;28;20059;-81
2022/07/27 08:51:48;;;;;;;6.65;3.10;;;24.40;1.00;;;;;;4960248;28;20070;-83
2022/07/27 08:54:40;;;;;;;3.40;2.65;;;24.00;1.00;;;;;;4957246;28;20055;-80
2022/07/27 08:57:32;;;;;;;9.18;3.33;;;24.10;1.00;;;;;;4952737;28;20066;-81
2022/07/27 09:00:19;;;;;;;3.55;2.42;;;24.40;1.00;;;;;;4934311;28;20047;-82
2022/07/27 09:03:11;;;;;;;6.25;2.33;;;25.50;1.00;;;;;;4951995;28;20076;-82
2022/07/27 09:06:07;;;;;;;4.53;2.90;;;26.10;1.00;;;;;;4957774;28;20554;-81
2022/07/27 09:08:58;;;;;;;4.60;2.55;;;26.20;1.00;;;;;;4954598;29;20071;-82
2022/07/27 09:12:03;;;;;;;5.97;2.63;;;26.30;1.00;;;;;;4960734;28;20062;-83
2022/07/27 09:14:50;;;;;;;3.67;2.95;;;26.20;99.90;;;;;;4952035;28;20410;-82
2022/07/27 09:17:41;;;;;;;3.35;2.60;;;26.20;99.90;;;;;;4959718;28;20106;-82
2022/07/27 09:20:36;;;;;;;8.32;2.50;;;26.30;99.90;;;;;;4970121;28;20044;-85
2022/07/27 09:23:26;;;;;;;6.07;2.58;;;26.30;99.90;;;;;;4969198;28;20039;-83
2022/07/27 09:26:31;;;;;;;5.45;2.50;;;26.30;99.90;;;;;;4974849;28;20101;-84
2022/07/27 09:29:20;;;;;;;7.32;2.45;;;26.50;99.90;;;;;;4972134;28;20051;-82
2022/07/27 09:32:17;;;;;;;4.78;2.65;;;26.20;99.90;;;;;;4961903;29;20043;-83
2022/07/27 09:35:18;;;;;;;4.40;2.70;;;25.80;99.90;;;;;;4970687;28;20058;-83
2022/07/27 09:38:20;;;;;;;5.40;3.35;;;25.60;99.90;;;;;;4964785;28;20110;-83
2022/07/27 09:41:12;;;;;;;6.80;3.00;;;25.40;99.90;;;;;;4950662;29;20135;-82
2022/07/27 09:43:59;;;;;;;4.60;2.85;;;25.30;99.90;;;;;;4955323;28;20047;-84
2022/07/27 09:47:25;;;;;;;5.32;3.10;;;25.70;99.90;;;;;;4957219;28;20512;-83
2022/07/27 09:50:19;;;;;;;3.58;2.63;;;26.20;99.90;;;;;;4954486;28;20047;-83
2022/07/27 09:53:16;;;;;;;4.13;3.10;;;26.00;99.90;;;;;;4950283;28;20481;-83
2022/07/27 09:56:33;;;;;;;6.60;3.22;;;25.20;99.90;;;;;;4949845;28;20047;-83
2022/07/27 09:59:23;;;;;;;3.55;2.75;;;25.10;99.90;;;;;;4954944;29;20601;-85
2022/07/27 10:02:14;;;;;;;7.20;2.80;;;25.40;99.90;;;;;;4956392;28;20043;-86
2022/07/27 10:05:01;;;;;;;4.75;2.55;;;25.50;99.90;;;;;;4958473;28;20062;-85
2022/07/27 10:07:52;;;;;;;7.10;2.40;;;26.70;99.90;;;;;;4955309;29;20127;-85
2022/07/27 10:10:43;;;;;;;4.68;2.78;;;27.50;99.90;;;;;;4957788;28;20047;-85
2022/07/27 10:13:30;;;;;;;3.10;2.80;;;26.70;99.90;;;;;;4958317;28;20083;-84
2022/07/27 10:16:27;;;;;;;3.55;2.90;;;26.50;99.90;;;;;;4954286;28;20326;-87
2022/07/27 10:19:17;;;;;;;;;;;27.10;99.90;;;;;;4956357;28;20040;-84
2022/07/27 10:22:07;;;;;;;7.88;2.63;;;27.90;99.90;;;;;;4955236;29;19931;-82
2022/07/27 10:24:59;;;;;;;3.92;2.10;;;29.00;99.90;;;;;;4933662;29;20058;-84
2022/07/27 10:28:07;;;;;;;5.45;2.30;;;30.50;99.90;;;;;;4953662;28;20055;-86
2022/07/27 10:31:16;;;;;;;3.67;1.98;;;31.10;99.90;;;;;;4938852;29;20505;-83
2022/07/27 10:34:09;;;;;;;4.78;2.40;;;31.00;99.90;;;;;;4955605;28;20059;-85
2022/07/27 10:37:14;;;;;;;5.88;2.83;;;29.40;99.90;;;;;;4946665;28;20125;-83
2022/07/27 10:43:20;;;;;;;4.10;2.53;;;29.20;99.90;;;;;;4947001;29;20051;-87
2022/07/27 10:46:17;;;;;;;8.02;2.30;;;30.50;99.90;;;;;;4941810;29;20043;-85
2022/07/27 10:49:24;;;;;;;7.15;2.20;;;31.00;99.90;;;;;;4954777;29;20476;-86
2022/07/27 10:52:52;;;;;;;6.22;2.05;;;31.00;99.90;;;;;;4934613;28;20144;-83
2022/07/27 10:55:41;;;;;;;4.47;1.95;;;31.70;99.90;;;;;;4947310;28;20391;-85
2022/07/27 10:58:29;;;;;;;2.90;1.80;;;31.70;99.90;;;;;;4956247;28;20059;-88
2022/07/27 11:01:17;;;;;;;4.32;2.08;;;30.70;99.90;;;;;;4952803;28;20047;-85
2022/07/27 11:04:10;;;;;;;3.60;2.17;;;29.00;99.90;;;;;;4955317;28;20039;-86
2022/07/27 11:07:00;;;;;;;6.25;2.03;;;28.30;99.90;;;;;;4953333;29;20065;-82
2022/07/27 11:10:07;;;;;;;2.80;2.00;;;26.90;99.90;;;;;;4953211;28;20054;-83
2022/07/27 11:12:57;;;;;;;3.45;2.00;;;26.50;99.90;;;;;;4952456;28;20558;-83
2022/07/27 11:15:58;;;;;;;5.68;2.10;;;26.70;99.90;;;;;;4953315;28;20360;-83
2022/07/27 11:19:06;;;;;;;3.63;1.90;;;27.30;99.90;;;;;;4957482;28;20312;-82
2022/07/27 11:21:55;;;;;;;1.92;1.50;;;28.60;99.90;;;;;;4945500;29;20048;-84
2022/07/27 11:24:48;;;;;;;5.78;2.30;;;30.30;99.90;;;;;;4940759;29;20421;-83
2022/07/27 11:27:51;;;;;;;7.05;1.95;;;30.60;99.90;;;;;;4958563;28;20449;-81
2022/07/27 11:30:38;;;;;;;5.43;1.70;;;30.40;99.90;;;;;;4945034;29;20074;-83
2022/07/27 11:33:26;;;;;;;2.00;1.48;;;30.70;99.90;;;;;;4952996;28;20043;-83
2022/07/27 11:36:13;;;;;;;7.35;1.50;;;30.80;99.90;;;;;;4952750;29;20040;-80
2022/07/27 11:39:02;;;;;;;4.47;1.90;;;30.30;99.90;;;;;;4932549;28;20194;-84
2022/07/27 11:41:56;;;;;;;4.38;1.58;;;28.70;99.90;;;;;;4941763;28;20081;-83
2022/07/27 11:45:00;;;;;;;3.80;1.85;;;27.60;99.90;;;;;;4945082;29;20057;-84
2022/07/27 11:47:58;;;;;;;2.85;1.92;;;26.70;99.90;;;;;;4960654;28;20051;-82
2022/07/27 11:51:18;;;;;;;5.28;1.80;;;26.10;99.90;;;;;;4952743;28;20055;-83
2022/07/27 11:54:11;;;;;;;5.95;2.35;;;25.20;99.90;;;;;;4964869;28;20043;-83
2022/07/27 11:57:06;;;;;;;6.63;2.25;;;24.70;99.90;;;;;;4944623;28;20062;-83
2022/07/27 11:59:53;;;;;;;2.85;1.50;;;24.70;99.90;;;;;;4967375;28;20059;-83
2022/07/27 12:02:52;;;;;;;5.32;1.80;;;26.70;99.90;;;;;;4970540;28;20051;-83
2022/07/27 12:05:50;;;;;;;3.00;1.88;;;29.10;99.90;;;;;;4962822;28;20131;-85
2022/07/27 12:08:37;;;;;;;4.63;2.15;;;30.60;99.90;;;;;;4959564;28;20046;-84
2022/07/27 12:11:44;;;;;;;5.03;1.83;;;31.70;99.90;;;;;;4937166;28;20039;-86
2022/07/27 12:14:39;;;;;;;2.47;1.35;;;32.30;99.90;;;;;;4950387;29;20482;-84
2022/07/27 12:17:26;;;;;;;5.20;1.60;;;33.50;99.90;;;;;;4963603;28;20051;-82
2022/07/27 12:20:16;;;;;;;2.47;1.17;;;34.00;99.90;;;;;;4964180;28;20039;-81
2022/07/27 12:23:06;;;;;;;2.33;1.40;;;33.00;99.90;;;;;;4950600;29;20054;-83
2022/07/27 12:25:56;;;;;;;6.25;1.60;;;31.90;99.90;;;;;;4944364;29;20039;-83
2022/07/27 12:28:43;;;;;;;2.25;1.63;;;29.70;99.90;;;;;;4959779;28;20051;-84
2022/07/27 12:31:34;;;;;;;3.50;1.70;;;27.90;99.90;;;;;;4963831;28;20145;-82
2022/07/27 12:34:22;;;;;;;9.27;1.75;;;26.60;99.90;;;;;;4958413;28;20043;-85
2022/07/27 12:37:13;;;;;;;3.20;1.60;;;26.00;99.90;;;;;;4959366;28;20580;-84
2022/07/27 12:40:00;;;;;;;4.38;1.65;;;26.50;99.90;;;;;;4958819;28;20046;-84
2022/07/27 12:43:03;;;;;;;2.65;1.38;;;28.00;99.90;;;;;;4956115;29;20130;-83
2022/07/27 12:45:53;;;;;;;1.85;1.25;;;29.60;99.90;;;;;;4948927;29;20488;-83
2022/07/27 12:48:44;;;;;;;5.13;1.35;;;30.50;99.90;;;;;;4943384;28;20051;-83
2022/07/27 12:51:31;;;;;;;2.60;1.20;;;30.60;99.90;;;;;;4942363;29;20138;-82
2022/07/27 12:54:19;;;;;;;3.13;1.70;;;31.30;99.90;;;;;;4938720;29;20043;-82
2022/07/27 12:57:06;;;;;;;4.38;1.42;;;31.70;99.90;;;;;;4960433;28;20047;-83
2022/07/27 12:59:54;;;;;;;3.55;1.10;;;33.20;99.90;;;;;;4959120;29;20039;-82
2022/07/27 13:02:45;;;;;;;3.17;1.02;;;34.00;99.90;;;;;;4960054;28;20057;-85
2022/07/27 13:05:33;;;;;;;4.28;1.40;;;32.00;99.90;;;;;;4946913;28;20044;-86
2022/07/27 13:08:21;;;;;;;3.75;1.65;;;32.10;99.90;;;;;;4953984;28;20059;-84
2022/07/27 13:11:08;;;;;;;2.85;1.65;;;29.80;99.90;;;;;;4952091;28;20040;-84
2022/07/27 13:13:59;;;;;;;3.30;1.33;;;29.10;99.90;;;;;;4961728;28;20663;-84
2022/07/27 13:16:48;;;;;;;3.22;1.38;;;29.80;99.90;;;;;;4951878;28;20047;-84
2022/07/27 13:19:36;;;;;;;5.57;1.50;;;30.40;99.90;;;;;;4950878;28;20440;-87
2022/07/27 13:22:24;;;;;;;3.13;1.25;;;30.00;99.90;;;;;;4957777;28;20067;-83
2022/07/27 13:25:12;;;;;;;4.68;1.60;;;30.30;99.90;;;;;;4964188;28;20046;-83
2022/07/27 13:28:03;;;;;;;2.92;1.17;;;30.10;99.90;;;;;;4953609;28;20398;-85
2022/07/27 13:30:53;;;;;;;3.47;1.15;;;30.60;99.90;;;;;;4958516;28;20473;-85
2022/07/27 13:33:40;;;;;;;2.35;1.20;;;31.60;99.90;;;;;;4956175;28;20432;-84
2022/07/27 13:36:28;;;;;;;4.57;1.25;;;32.00;99.90;;;;;;4961115;28;20039;-83
2022/07/27 13:39:15;;;;;;;1.95;1.35;;;30.80;99.90;;;;;;4946023;28;20461;-84
2022/07/27 13:42:03;;;;;;;5.40;1.35;;;30.20;99.90;;;;;;4961823;28;20039;-84
2022/07/27 13:44:59;;;;;;;3.85;1.20;;;29.40;99.90;;;;;;4953832;28;20055;-83
2022/07/27 13:47:57;;;;;;;3.95;1.63;;;28.00;99.90;;;;;;4952458;28;20473;-84
2022/07/27 13:51:04;;;;;;;6.97;1.65;;;27.30;99.90;;;;;;4952703;28;20067;-81
2022/07/27 13:53:52;;;;;;;2.45;1.27;;;28.70;99.90;;;;;;4956149;28;20054;-82
2022/07/27 13:56:45;;;;;;;3.05;1.00;;;30.30;99.90;;;;;;4952505;28;20054;-84
2022/07/27 13:59:32;;;;;;;1.80;1.27;;;32.20;99.90;;;;;;4955882;29;20051;-84
2022/07/27 14:02:19;;;;;;;5.38;1.30;;;32.00;99.90;;;;;;4953860;29;20338;-83
2022/07/27 14:05:12;;;;;;;;;;;30.60;99.90;;;;;;4958755;28;20047;-84
2022/07/27 14:08:02;;;;;;;5.43;1.40;;;29.50;99.90;;;;;;4954072;28;19922;-84
2022/07/27 14:10:51;;;;;;;6.97;1.50;;;28.50;99.90;;;;;;4960686;29;20043;-84
2022/07/27 14:13:41;;;;;;;4.82;1.50;;;29.40;99.90;;;;;;4948064;28;20047;-81
2022/07/27 14:16:28;;;;;;;2.63;1.25;;;30.70;99.90;;;;;;4946954;28;20117;-86
2022/07/27 14:19:18;;;;;;;5.90;1.42;;;29.40;99.90;;;;;;4958299;28;20035;-84
2022/07/27 14:22:09;;;;;;;4.72;1.60;;;28.10;99.90;;;;;;4945252;28;20054;-84
2022/07/27 14:24:56;;;;;;;4.65;2.13;;;27.30;99.90;;;;;;4949493;29;20366;-84
2022/07/27 14:27:43;;;;;;;4.25;1.48;;;26.50;99.90;;;;;;4958602;28;20039;-85
2022/07/27 14:30:31;;;;;;;7.78;1.52;;;27.20;99.90;;;;;;4941023;28;20122;-87
2022/07/27 14:33:21;;;;;;;6.22;1.40;;;28.00;99.90;;;;;;4956041;28;20066;-86
2022/07/27 14:36:10;;;;;;;3.28;1.25;;;28.40;99.90;;;;;;4949218;29;20099;-83
2022/07/27 14:38:57;;;;;;;2.95;1.65;;;29.10;99.90;;;;;;4947006;28;20348;-85
2022/07/27 14:41:45;;;;;;;2.65;1.20;;;28.90;99.90;;;;;;4962734;28;20058;-85
2022/07/27 14:44:36;;;;;;;2.20;1.23;;;29.40;99.90;;;;;;4955191;28;20102;-84
2022/07/27 14:47:24;;;;;;;4.72;1.48;;;28.70;99.90;;;;;;4956149;28;20047;-83
2022/07/27 14:50:11;;;;;;;3.40;1.10;;;27.90;99.90;;;;;;4958318;28;20381;-85
2022/07/27 14:52:58;;;;;;;1.73;1.38;;;27.90;99.90;;;;;;4957103;28;20053;-85
2022/07/27 14:55:46;;;;;;;7.57;1.60;;;27.60;99.90;;;;;;4952935;28;20051;-84
2022/07/27 14:58:33;;;;;;;4.60;2.22;;;26.40;99.90;;;;;;4955135;28;20132;-83
2022/07/27 15:01:22;;;;;;;2.35;1.40;;;25.80;99.90;;;;;;4942413;28;20450;-84
2022/07/27 15:04:10;;;;;;;2.03;1.40;;;26.10;99.90;;;;;;4954333;28;20485;-85
2022/07/27 15:06:58;;;;;;;2.13;1.23;;;27.70;99.90;;;;;;4937683;28;20058;-85
2022/07/27 15:09:47;;;;;;;4.82;1.27;;;29.20;99.90;;;;;;4949647;28;20478;-85
2022/07/27 15:12:36;;;;;;;4.75;1.20;;;28.80;99.90;;;;;;4953025;28;20171;-84